Time;durP1;ratioP1;P1;durP2;ratioP2;P2;SDS_P1;SDS_P2;PMS_P1;PMS_P2;Temp;Humidity;BMP_temperature;BMP_pressure;BME280_temperature;BME280_humidity;BME280_pressure;Samples;Min_cycle;Max_cycle;Signal;HPM_P1;HPM_P2
2022/01/27 00:00:06;;;;;;;43.73;22.40;;;3.90;99.90;;;;;;5116638;28;20447;-71
2022/01/27 00:02:49;;;;;;;55.30;23.10;;;3.90;99.90;;;;;;5116500;28;20453;-70
2022/01/27 00:05:18;;;;;;;52.37;24.00;;;3.90;99.90;;;;;;5116447;28;20451;-68
2022/01/27 00:08:07;;;;;;;55.50;23.77;;;3.90;99.90;;;;;;5116647;28;20761;-72
2022/01/27 00:10:49;;;;;;;53.30;23.17;;;3.80;99.90;;;;;;5116694;28;20502;-70
2022/01/27 00:13:17;;;;;;;47.90;23.23;;;3.80;99.90;;;;;;5117362;28;20445;-70
2022/01/27 00:15:47;;;;;;;46.93;23.13;;;3.80;99.90;;;;;;5117809;28;20523;-70
2022/01/27 00:18:17;;;;;;;51.80;24.93;;;3.80;99.90;;;;;;5118580;28;20448;-69
2022/01/27 00:20:45;;;;;;;54.53;23.63;;;3.80;99.90;;;;;;5116751;28;20556;-71
2022/01/27 00:23:12;;;;;;;52.67;23.50;;;3.80;99.90;;;;;;5116441;28;20461;-70
2022/01/27 00:25:40;;;;;;;52.33;22.40;;;3.80;99.90;;;;;;5117206;27;20460;-69
2022/01/27 00:28:07;;;;;;;51.27;23.57;;;3.80;99.90;;;;;;5117212;28;20471;-70
2022/01/27 00:30:34;;;;;;;52.30;23.63;;;3.70;99.90;;;;;;5116817;28;20471;-71
2022/01/27 00:33:01;;;;;;;48.20;23.70;;;3.70;99.90;;;;;;5117036;28;20456;-71
2022/01/27 00:35:27;;;;;;;48.43;22.07;;;3.70;99.90;;;;;;5115890;28;20456;-72
2022/01/27 00:37:54;;;;;;;39.47;21.67;;;3.70;99.90;;;;;;5116334;28;20449;-71
2022/01/27 00:40:22;;;;;;;44.87;19.70;;;3.70;99.90;;;;;;5116268;27;20463;-72
2022/01/27 00:42:50;;;;;;;45.30;20.03;;;3.70;99.90;;;;;;5117853;28;20513;-71
2022/01/27 00:45:16;;;;;;;37.37;19.73;;;3.70;99.90;;;;;;5118549;28;20491;-72
2022/01/27 00:47:43;;;;;;;37.07;18.87;;;3.70;99.90;;;;;;5117283;28;20529;-71
2022/01/27 00:50:10;;;;;;;41.93;20.33;;;3.70;99.90;;;;;;5117576;28;20460;-71
2022/01/27 00:52:40;;;;;;;42.90;20.70;;;3.80;99.90;;;;;;5117239;28;20467;-71
2022/01/27 00:55:10;;;;;;;42.37;20.97;;;3.80;99.90;;;;;;5118061;28;20452;-71
2022/01/27 00:57:48;;;;;;;43.27;17.97;;;3.80;99.90;;;;;;5119334;28;20779;-71
2022/01/27 01:00:22;;;;;;;40.40;18.33;;;3.80;99.90;;;;;;5119893;28;20532;-71
2022/01/27 01:02:54;;;;;;;42.77;20.37;;;3.80;99.90;;;;;;5119123;28;20437;-70
2022/01/27 01:05:37;;;;;;;37.33;20.40;;;3.80;99.90;;;;;;5120729;28;20437;-70
2022/01/27 01:08:34;;;;;;;41.17;21.20;;;3.80;99.90;;;;;;5117780;28;20929;-70
2022/01/27 01:11:30;;;;;;;36.77;19.13;;;3.80;99.90;;;;;;5115663;28;20952;-70
2022/01/27 01:16:48;;;;;;;40.63;20.40;;;3.90;99.90;;;;;;5108286;28;20605;-70
2022/01/27 01:19:23;;;;;;;35.13;17.20;;;3.90;99.90;;;;;;5116127;28;20821;-70
2022/01/27 01:22:08;;;;;;;38.97;19.30;;;3.90;99.90;;;;;;5115563;28;20433;-70
2022/01/27 01:30:20;;;;;;;36.57;20.60;;;3.90;99.90;;;;;;5115134;28;20765;-69
2022/01/27 01:32:52;;;;;;;35.10;16.83;;;4.00;99.90;;;;;;5115212;28;20517;-71
2022/01/27 01:35:27;;;;;;;34.50;17.67;;;3.90;99.90;;;;;;5115266;28;20455;-70
2022/01/27 01:37:54;;;;;;;40.00;18.90;;;3.90;99.90;;;;;;5115299;28;20480;-70
2022/01/27 01:40:20;;;;;;;37.57;17.00;;;3.90;99.90;;;;;;5114878;28;20456;-70
2022/01/27 01:42:48;;;;;;;34.80;16.50;;;3.90;99.90;;;;;;5114966;28;20452;-70
2022/01/27 01:45:17;;;;;;;40.30;17.97;;;4.00;99.90;;;;;;5114665;28;20467;-71
2022/01/27 01:47:44;;;;;;;32.80;16.27;;;4.00;99.90;;;;;;5118395;28;20951;-70
2022/01/27 01:50:13;;;;;;;28.50;16.77;;;4.00;99.90;;;;;;5119020;28;20516;-70
2022/01/27 01:52:41;;;;;;;31.03;16.10;;;4.10;99.90;;;;;;5118923;28;20458;-70
2022/01/27 01:55:09;;;;;;;33.60;14.53;;;4.10;99.90;;;;;;5119250;28;20468;-70
2022/01/27 01:57:36;;;;;;;30.77;16.40;;;4.10;99.90;;;;;;5118714;28;20476;-70
2022/01/27 02:00:04;;;;;;;33.50;17.23;;;4.10;99.90;;;;;;5119254;27;20463;-71
2022/01/27 02:02:31;;;;;;;29.10;15.20;;;4.10;99.90;;;;;;5119162;28;20456;-71
2022/01/27 02:04:58;;;;;;;29.23;15.80;;;4.10;99.90;;;;;;5119237;28;20513;-71
2022/01/27 02:07:34;;;;;;;33.27;15.90;;;4.10;99.90;;;;;;5118761;28;20456;-71
2022/01/27 02:10:10;;;;;;;28.40;14.77;;;4.10;99.90;;;;;;5118454;28;20896;-70
2022/01/27 02:18:21;;;;;;;26.57;14.30;;;4.20;99.90;;;;;;5076030;28;20473;-70
2022/01/27 02:20:49;;;;;;;27.10;15.43;;;4.20;99.90;;;;;;5075921;28;20464;-70
2022/01/27 02:23:15;;;;;;;25.13;14.60;;;4.20;99.90;;;;;;5094983;28;20802;-70
2022/01/27 02:25:42;;;;;;;24.80;13.47;;;4.20;99.90;;;;;;5118627;28;20452;-70
2022/01/27 02:28:09;;;;;;;25.60;13.40;;;4.30;99.90;;;;;;5118390;28;20751;-71
2022/01/27 02:30:36;;;;;;;22.90;13.87;;;4.30;99.90;;;;;;5118458;28;20456;-69
2022/01/27 02:33:03;;;;;;;22.67;15.03;;;4.30;99.90;;;;;;5118471;28;20824;-70
2022/01/27 02:35:31;;;;;;;26.60;14.70;;;4.30;99.90;;;;;;5118230;28;20540;-70
2022/01/27 02:38:00;;;;;;;22.43;13.40;;;4.30;99.90;;;;;;5118438;28;20488;-68
2022/01/27 02:40:34;;;;;;;24.03;12.57;;;4.20;99.90;;;;;;5118249;28;20456;-70
2022/01/27 02:43:01;;;;;;;22.33;14.10;;;4.20;99.90;;;;;;5118100;28;20494;-71
2022/01/27 02:45:36;;;;;;;23.07;14.30;;;4.30;99.90;;;;;;5118165;28;20559;-70
2022/01/27 02:48:03;;;;;;;23.90;14.50;;;4.20;99.90;;;;;;5117647;28;20845;-71
2022/01/27 02:50:29;;;;;;;23.37;14.20;;;4.20;99.90;;;;;;5118119;27;20452;-70
2022/01/27 02:52:56;;;;;;;22.80;13.50;;;4.30;99.90;;;;;;5117879;28;20456;-70
2022/01/27 02:55:24;;;;;;;25.13;15.27;;;4.30;99.90;;;;;;5117415;28;20460;-70
2022/01/27 02:57:51;;;;;;;22.07;13.73;;;4.30;99.90;;;;;;5117495;28;20477;-69
2022/01/27 03:00:18;;;;;;;21.40;13.47;;;4.30;99.90;;;;;;5117956;28;20786;-69
2022/01/27 03:02:45;;;;;;;23.27;12.97;;;4.30;99.90;;;;;;5117942;28;20452;-69
2022/01/27 03:05:12;;;;;;;21.47;13.53;;;4.30;99.90;;;;;;5117846;28;20896;-70
2022/01/27 03:07:38;;;;;;;22.50;13.90;;;4.30;99.90;;;;;;5117749;27;20959;-69
2022/01/27 03:10:06;;;;;;;22.53;13.67;;;4.40;99.90;;;;;;5117947;28;20537;-69
2022/01/27 03:12:37;;;;;;;22.63;13.40;;;4.40;99.90;;;;;;5118081;27;20464;-70
2022/01/27 03:15:05;;;;;;;24.07;14.10;;;4.40;99.90;;;;;;5118502;28;20540;-71
2022/01/27 03:17:31;;;;;;;20.40;13.13;;;4.30;99.90;;;;;;5118553;28;20476;-71
2022/01/27 03:19:58;;;;;;;23.60;13.87;;;4.40;99.90;;;;;;5118021;27;20755;-70
2022/01/27 03:22:25;;;;;;;23.63;13.67;;;4.40;99.90;;;;;;5128972;28;20459;-70
2022/01/27 03:24:51;;;;;;;20.50;13.10;;;4.40;99.90;;;;;;5134583;27;20453;-70
2022/01/27 03:27:22;;;;;;;20.17;13.80;;;4.40;99.90;;;;;;5122058;28;20452;-70
2022/01/27 03:29:50;;;;;;;22.17;12.43;;;4.40;99.90;;;;;;5118011;28;20444;-70
2022/01/27 03:32:16;;;;;;;22.67;12.70;;;4.40;99.90;;;;;;5117455;28;20460;-70
2022/01/27 03:34:44;;;;;;;21.23;13.47;;;4.40;99.90;;;;;;5117564;28;20453;-70
2022/01/27 03:37:11;;;;;;;23.17;13.30;;;4.40;99.90;;;;;;5116773;28;20601;-70
2022/01/27 03:39:39;;;;;;;21.13;13.20;;;4.40;99.90;;;;;;5117210;28;20543;-70
2022/01/27 03:42:08;;;;;;;19.87;12.37;;;4.40;99.90;;;;;;5117158;28;20554;-71
2022/01/27 03:44:35;;;;;;;20.93;13.13;;;4.50;99.90;;;;;;5116928;28;20457;-69
2022/01/27 03:47:04;;;;;;;27.00;13.93;;;4.50;99.90;;;;;;5116406;28;20483;-70
2022/01/27 03:49:31;;;;;;;24.07;13.33;;;4.50;99.90;;;;;;5117080;28;20452;-71
2022/01/27 03:52:00;;;;;;;21.83;13.33;;;4.40;99.90;;;;;;5116921;28;20452;-70
2022/01/27 03:54:28;;;;;;;22.70;14.20;;;4.50;99.90;;;;;;5116887;28;20462;-70
2022/01/27 03:56:54;;;;;;;20.17;12.00;;;4.50;99.90;;;;;;5116878;28;20476;-70
2022/01/27 03:59:22;;;;;;;22.17;13.50;;;4.50;99.90;;;;;;5117724;27;20805;-70
2022/01/27 04:01:48;;;;;;;23.03;13.70;;;4.50;99.90;;;;;;5116533;28;20478;-70
2022/01/27 04:04:16;;;;;;;24.70;14.13;;;4.50;99.90;;;;;;5116813;28;20456;-69
2022/01/27 04:06:43;;;;;;;18.93;12.87;;;4.50;99.90;;;;;;5116318;28;20453;-69
2022/01/27 04:09:11;;;;;;;21.03;13.80;;;4.50;99.90;;;;;;5116044;28;20559;-70
2022/01/27 04:11:40;;;;;;;23.97;14.40;;;4.50;99.90;;;;;;5116157;28;20456;-70
2022/01/27 04:14:07;;;;;;;18.73;12.57;;;4.50;99.90;;;;;;5116551;28;20464;-70
2022/01/27 04:16:34;;;;;;;19.90;13.23;;;4.50;99.90;;;;;;5115880;28;20456;-69
2022/01/27 04:19:00;;;;;;;23.00;14.27;;;4.40;99.90;;;;;;5116464;28;20468;-70
2022/01/27 04:21:28;;;;;;;22.03;12.83;;;4.40;99.90;;;;;;5117213;28;20767;-83
2022/01/27 04:23:56;;;;;;;22.93;14.17;;;4.40;99.90;;;;;;5117070;28;20452;-80
2022/01/27 04:26:29;;;;;;;23.83;14.17;;;4.40;99.90;;;;;;5116967;28;20456;-73
2022/01/27 04:28:55;;;;;;;17.30;11.30;;;4.50;99.90;;;;;;5116859;28;20483;-70
2022/01/27 04:31:24;;;;;;;21.37;14.03;;;4.40;99.90;;;;;;5116017;28;20879;-70
2022/01/27 04:33:51;;;;;;;20.60;13.13;;;4.50;99.90;;;;;;5116244;28;20826;-70
2022/01/27 04:36:23;;;;;;;20.83;13.03;;;4.50;99.90;;;;;;5115913;28;20836;-70
2022/01/27 04:38:57;;;;;;;21.23;13.10;;;4.60;99.90;;;;;;5115568;28;20460;-69
2022/01/27 04:41:32;;;;;;;21.50;13.00;;;4.60;99.90;;;;;;5116107;28;20483;-71
2022/01/27 04:44:06;;;;;;;21.60;13.87;;;4.60;99.90;;;;;;5115526;28;20444;-69
2022/01/27 04:46:39;;;;;;;19.37;12.07;;;4.70;99.90;;;;;;5115558;28;20960;-70
2022/01/27 04:49:08;;;;;;;18.47;12.60;;;4.60;99.90;;;;;;5115511;28;20437;-70
2022/01/27 04:51:34;;;;;;;21.20;12.13;;;4.70;99.90;;;;;;5115740;28;20456;-70
2022/01/27 04:54:08;;;;;;;14.63;11.00;;;4.80;99.90;;;;;;5115631;28;20460;-70
2022/01/27 04:56:37;;;;;;;19.30;12.57;;;4.70;99.90;;;;;;5115397;27;20945;-70
2022/01/27 04:59:10;;;;;;;15.83;11.27;;;4.70;99.90;;;;;;5115155;28;20452;-69
2022/01/27 05:01:41;;;;;;;14.20;11.03;;;4.80;99.90;;;;;;5115563;28;20797;-69
2022/01/27 05:04:12;;;;;;;14.37;9.63;;;4.70;99.90;;;;;;5115614;28;20852;-70
2022/01/27 05:06:39;;;;;;;15.20;10.13;;;4.70;99.90;;;;;;5115839;28;20444;-71
2022/01/27 05:09:10;;;;;;;14.60;10.50;;;4.70;99.90;;;;;;5115643;27;20445;-71
2022/01/27 05:11:43;;;;;;;15.13;10.50;;;4.70;99.90;;;;;;5115581;28;20521;-70
2022/01/27 05:14:15;;;;;;;15.90;10.07;;;4.70;99.90;;;;;;5115394;28;20892;-70
2022/01/27 05:16:42;;;;;;;14.77;9.43;;;4.70;99.90;;;;;;5115525;28;20483;-70
2022/01/27 05:19:09;;;;;;;13.43;9.70;;;4.80;99.90;;;;;;5115207;28;20494;-69
2022/01/27 05:21:35;;;;;;;12.37;8.80;;;4.70;99.90;;;;;;5114293;28;20452;-69
2022/01/27 05:24:03;;;;;;;13.90;9.83;;;4.70;99.90;;;;;;5115128;28;20469;-69
2022/01/27 05:26:32;;;;;;;12.97;9.30;;;4.70;99.90;;;;;;5115362;28;20472;-69
2022/01/27 05:28:58;;;;;;;10.87;8.80;;;4.70;99.90;;;;;;5115199;28;20457;-69
2022/01/27 05:31:25;;;;;;;11.20;8.73;;;4.70;99.90;;;;;;5114952;28;20873;-70
2022/01/27 05:33:52;;;;;;;14.60;9.60;;;4.70;99.90;;;;;;5115598;28;20452;-70
2022/01/27 05:36:20;;;;;;;11.07;8.80;;;4.70;99.90;;;;;;5115004;28;20828;-69
2022/01/27 05:38:46;;;;;;;12.00;8.27;;;4.70;99.90;;;;;;5114817;28;20472;-70
2022/01/27 05:41:14;;;;;;;12.47;8.87;;;4.70;99.90;;;;;;5115303;28;20530;-70
2022/01/27 05:43:43;;;;;;;13.30;8.80;;;4.70;99.90;;;;;;5114999;28;20766;-69
2022/01/27 05:46:10;;;;;;;16.23;9.57;;;4.70;99.90;;;;;;5115111;28;20463;-70
2022/01/27 05:48:37;;;;;;;11.50;9.10;;;4.70;99.90;;;;;;5114964;28;20444;-70
2022/01/27 05:51:04;;;;;;;12.77;9.73;;;4.70;99.90;;;;;;5115220;28;20759;-70
2022/01/27 05:53:32;;;;;;;17.53;9.87;;;4.70;99.90;;;;;;5114422;28;20913;-70
2022/01/27 05:55:59;;;;;;;14.90;10.43;;;4.70;99.90;;;;;;5114834;28;20456;-70
2022/01/27 05:58:26;;;;;;;17.80;11.20;;;4.70;99.90;;;;;;5114522;28;20788;-68
2022/01/27 06:00:54;;;;;;;17.73;11.03;;;4.70;99.90;;;;;;5114914;28;20456;-69
2022/01/27 06:03:21;;;;;;;14.87;11.30;;;4.60;99.90;;;;;;5114811;28;20473;-70
2022/01/27 06:05:48;;;;;;;14.87;10.70;;;4.50;99.90;;;;;;5114908;28;20460;-69
2022/01/27 06:08:14;;;;;;;15.83;11.30;;;4.50;99.90;;;;;;5114759;28;20452;-69
2022/01/27 06:10:41;;;;;;;15.70;12.00;;;4.40;99.90;;;;;;5114759;28;20905;-70
2022/01/27 06:13:08;;;;;;;16.10;11.47;;;4.30;99.90;;;;;;5114580;28;20468;-69
2022/01/27 06:15:35;;;;;;;17.53;13.03;;;4.30;99.90;;;;;;5116049;28;20521;-70
2022/01/27 06:18:03;;;;;;;18.70;12.20;;;4.30;99.90;;;;;;5116419;28;20776;-70
2022/01/27 06:20:31;;;;;;;19.37;12.57;;;4.30;99.90;;;;;;5115924;28;20774;-69
2022/01/27 06:22:58;;;;;;;21.47;13.80;;;4.30;99.90;;;;;;5114599;28;20556;-69
2022/01/27 06:25:26;;;;;;;16.87;12.73;;;4.20;99.90;;;;;;5115040;28;20453;-69
2022/01/27 06:27:53;;;;;;;16.60;12.23;;;4.30;99.90;;;;;;5114607;28;20463;-69
2022/01/27 06:30:20;;;;;;;17.70;12.40;;;4.30;99.90;;;;;;5114584;28;20461;-69
2022/01/27 06:32:47;;;;;;;19.53;13.97;;;4.30;99.90;;;;;;5116416;28;20456;-68
2022/01/27 06:35:16;;;;;;;22.60;13.53;;;4.30;99.90;;;;;;5118314;28;20463;-69
2022/01/27 06:37:44;;;;;;;20.93;14.33;;;4.30;99.90;;;;;;5118098;28;20817;-70
2022/01/27 06:40:14;;;;;;;25.07;14.97;;;4.30;99.90;;;;;;5118058;28;20478;-70
2022/01/27 06:42:41;;;;;;;22.23;14.70;;;4.40;99.90;;;;;;5117828;27;20479;-70
2022/01/27 06:45:09;;;;;;;20.53;14.43;;;4.40;99.90;;;;;;5118205;27;20940;-69
2022/01/27 06:47:36;;;;;;;20.23;13.87;;;4.40;99.90;;;;;;5117560;28;20480;-70
2022/01/27 06:50:03;;;;;;;20.17;14.77;;;4.40;99.90;;;;;;5117893;28;20457;-70
2022/01/27 06:52:31;;;;;;;22.10;14.77;;;4.50;99.90;;;;;;5118146;28;20456;-69
2022/01/27 06:54:58;;;;;;;22.57;15.30;;;4.50;99.90;;;;;;5117826;28;20467;-69
2022/01/27 06:57:25;;;;;;;20.80;13.97;;;4.50;99.90;;;;;;5117654;28;20461;-70
2022/01/27 06:59:52;;;;;;;22.53;14.43;;;4.50;99.90;;;;;;5118092;28;20456;-72
2022/01/27 07:02:19;;;;;;;25.60;16.33;;;4.50;99.90;;;;;;5118224;28;20456;-69
2022/01/27 07:04:46;;;;;;;22.97;15.27;;;4.50;99.90;;;;;;5118118;28;20463;-70
2022/01/27 07:07:13;;;;;;;25.30;15.97;;;4.50;99.90;;;;;;5117478;28;20467;-70
2022/01/27 07:09:41;;;;;;;24.23;15.67;;;4.50;99.90;;;;;;5118032;28;20448;-72
2022/01/27 07:12:12;;;;;;;23.60;17.13;;;4.50;99.90;;;;;;5117973;27;20467;-70
2022/01/27 07:14:38;;;;;;;28.27;18.03;;;4.50;99.90;;;;;;5119303;28;20441;-71
2022/01/27 07:17:05;;;;;;;27.73;17.40;;;4.60;99.90;;;;;;5118087;28;20452;-70
2022/01/27 07:19:32;;;;;;;29.80;16.10;;;4.60;99.90;;;;;;5117361;28;20465;-72
2022/01/27 07:21:59;;;;;;;25.30;17.67;;;4.60;99.90;;;;;;5117447;28;20464;-70
2022/01/27 07:24:26;;;;;;;32.00;19.20;;;4.50;99.90;;;;;;5117666;28;20460;-71
2022/01/27 07:26:54;;;;;;;28.30;17.47;;;4.40;99.90;;;;;;5117317;27;20467;-69
2022/01/27 07:29:21;;;;;;;33.13;20.70;;;4.40;99.90;;;;;;5117813;28;20456;-70
2022/01/27 07:31:48;;;;;;;35.43;19.20;;;4.40;99.90;;;;;;5117274;27;20468;-70
2022/01/27 07:34:14;;;;;;;31.30;20.13;;;4.40;99.90;;;;;;5117225;28;20571;-70
2022/01/27 07:36:41;;;;;;;32.00;19.57;;;4.40;99.90;;;;;;5116948;28;20501;-69
2022/01/27 07:39:13;;;;;;;33.57;20.77;;;4.40;99.90;;;;;;5117220;28;20525;-70
2022/01/27 07:41:40;;;;;;;35.17;20.83;;;4.50;99.90;;;;;;5117039;28;20515;-70
2022/01/27 07:44:08;;;;;;;36.83;21.90;;;4.40;99.90;;;;;;5116247;28;20570;-71
2022/01/27 07:46:35;;;;;;;33.03;20.10;;;4.50;99.90;;;;;;5116665;28;20495;-70
2022/01/27 07:49:01;;;;;;;36.80;22.17;;;4.50;99.90;;;;;;5117119;28;20565;-71
2022/01/27 07:51:28;;;;;;;38.00;22.80;;;4.50;99.90;;;;;;5117222;27;20464;-69
2022/01/27 07:53:55;;;;;;;35.90;21.80;;;4.50;99.90;;;;;;5117125;28;20460;-70
2022/01/27 07:56:22;;;;;;;42.10;22.90;;;4.50;99.90;;;;;;5116851;28;20482;-70
2022/01/27 07:58:48;;;;;;;42.83;23.10;;;4.50;99.90;;;;;;5116934;28;20512;-70
2022/01/27 08:01:16;;;;;;;39.53;23.07;;;4.40;99.90;;;;;;5116861;28;20456;-71
2022/01/27 08:03:43;;;;;;;40.50;24.20;;;4.30;99.90;;;;;;5116354;28;20453;-71
2022/01/27 08:06:10;;;;;;;36.90;22.70;;;4.30;99.90;;;;;;5116405;28;20449;-69
2022/01/27 08:08:37;;;;;;;40.43;23.10;;;4.30;99.90;;;;;;5116766;28;20449;-71
2022/01/27 08:11:04;;;;;;;39.20;24.37;;;4.20;99.90;;;;;;5116441;28;20463;-70
2022/01/27 08:13:31;;;;;;;40.50;24.03;;;4.20;99.90;;;;;;5116409;28;20452;-69
2022/01/27 08:15:57;;;;;;;42.73;23.77;;;4.20;99.90;;;;;;5116344;28;20453;-71
2022/01/27 08:18:25;;;;;;;38.67;23.30;;;4.30;99.90;;;;;;5115956;28;21032;-69
2022/01/27 08:20:52;;;;;;;36.20;22.33;;;4.30;99.90;;;;;;5116059;28;20806;-70
2022/01/27 08:23:20;;;;;;;37.73;22.47;;;4.30;99.90;;;;;;5116264;28;20483;-70
2022/01/27 08:25:53;;;;;;;36.30;20.47;;;4.30;99.90;;;;;;5116619;28;20452;-69
2022/01/27 08:28:26;;;;;;;35.97;21.83;;;4.30;99.90;;;;;;5116721;28;20437;-69
2022/01/27 08:30:55;;;;;;;32.07;19.60;;;4.40;99.90;;;;;;5115982;28;20444;-69
2022/01/27 08:33:23;;;;;;;36.07;23.00;;;4.40;99.90;;;;;;5115837;28;20487;-69
2022/01/27 08:35:51;;;;;;;33.50;21.17;;;4.30;99.90;;;;;;5116214;28;20462;-71
2022/01/27 08:38:18;;;;;;;37.13;23.10;;;4.30;99.90;;;;;;5116382;28;20495;-69
2022/01/27 08:40:45;;;;;;;34.00;21.17;;;4.30;99.90;;;;;;5116206;28;20452;-69
2022/01/27 08:43:12;;;;;;;33.80;21.40;;;4.20;99.90;;;;;;5115770;28;20460;-69
2022/01/27 08:45:42;;;;;;;34.90;20.90;;;4.20;99.90;;;;;;5115910;28;20456;-69
2022/01/27 08:48:12;;;;;;;34.57;23.03;;;4.20;99.90;;;;;;5115434;28;20804;-69
2022/01/27 08:50:39;;;;;;;38.43;22.00;;;4.20;99.90;;;;;;5116079;28;20447;-69
2022/01/27 08:53:07;;;;;;;39.90;21.93;;;4.20;99.90;;;;;;5115961;28;20771;-70
2022/01/27 08:55:34;;;;;;;34.23;20.60;;;4.20;99.90;;;;;;5115352;28;20456;-70
2022/01/27 08:58:01;;;;;;;36.63;19.37;;;4.30;99.90;;;;;;5115687;28;20448;-69
2022/01/27 09:00:28;;;;;;;35.57;21.43;;;4.30;99.90;;;;;;5116261;28;20882;-69
2022/01/27 09:02:56;;;;;;;33.90;20.87;;;4.30;99.90;;;;;;5116114;28;20456;-70
2022/01/27 09:05:23;;;;;;;34.10;20.83;;;4.40;99.90;;;;;;5116588;28;20464;-70
2022/01/27 09:07:53;;;;;;;34.37;19.83;;;4.40;99.90;;;;;;5116159;28;20525;-71
2022/01/27 09:10:21;;;;;;;37.77;21.50;;;4.40;99.90;;;;;;5118222;28;20750;-70
2022/01/27 09:12:47;;;;;;;31.80;19.27;;;4.50;99.90;;;;;;5120193;28;20506;-70
2022/01/27 09:15:15;;;;;;;34.00;20.63;;;4.50;99.90;;;;;;5119389;28;20452;-70
2022/01/27 09:17:42;;;;;;;39.70;20.30;;;4.50;99.90;;;;;;5119044;28;20539;-70
2022/01/27 09:20:10;;;;;;;33.83;19.50;;;4.60;99.90;;;;;;5117662;28;20735;-70
2022/01/27 09:22:37;;;;;;;32.20;18.70;;;4.60;99.90;;;;;;5119069;28;20543;-70
2022/01/27 09:25:12;;;;;;;33.73;19.40;;;4.50;99.90;;;;;;5116096;28;20452;-69
2022/01/27 09:27:42;;;;;;;30.30;18.60;;;4.50;99.90;;;;;;5115821;28;20454;-70
2022/01/27 09:30:10;;;;;;;32.43;18.63;;;4.60;99.90;;;;;;5115071;28;20497;-70
2022/01/27 09:32:37;;;;;;;33.80;18.20;;;4.60;99.90;;;;;;5115480;28;20452;-70
2022/01/27 09:35:04;;;;;;;36.00;20.30;;;4.60;99.90;;;;;;5115294;28;20603;-70
2022/01/27 09:37:31;;;;;;;32.80;18.23;;;4.60;99.90;;;;;;5114939;28;20560;-69
2022/01/27 09:39:58;;;;;;;31.70;18.57;;;4.50;99.90;;;;;;5114823;28;20987;-69
2022/01/27 09:42:27;;;;;;;29.80;17.07;;;4.50;99.90;;;;;;5115161;28;20488;-70
2022/01/27 09:45:01;;;;;;;32.27;18.43;;;4.50;99.90;;;;;;5115567;28;20452;-70
2022/01/27 09:47:33;;;;;;;27.07;16.87;;;4.50;99.90;;;;;;5115191;28;20784;-70
2022/01/27 09:50:18;;;;;;;30.70;18.60;;;4.50;99.90;;;;;;5117037;28;20532;-70
2022/01/27 09:52:47;;;;;;;29.13;16.70;;;4.60;99.90;;;;;;5116807;28;20437;-70
2022/01/27 09:55:14;;;;;;;28.67;16.10;;;4.60;99.90;;;;;;5116845;28;20487;-70
2022/01/27 09:57:42;;;;;;;29.80;16.60;;;4.60;99.90;;;;;;5115699;28;20925;-71
2022/01/27 10:00:13;;;;;;;27.97;16.80;;;4.50;99.90;;;;;;5115945;28;20476;-69
2022/01/27 10:03:00;;;;;;;31.90;17.17;;;4.40;99.90;;;;;;5115315;28;20459;-69
2022/01/27 10:05:26;;;;;;;25.60;15.53;;;4.30;99.90;;;;;;5112961;28;20448;-69
2022/01/27 10:08:01;;;;;;;29.47;16.93;;;4.20;99.90;;;;;;5117678;28;20464;-71
2022/01/27 10:10:28;;;;;;;26.80;15.13;;;4.20;99.90;;;;;;5119136;28;20776;-69
2022/01/27 10:12:57;;;;;;;29.03;16.80;;;4.10;99.90;;;;;;5119147;28;20475;-69
2022/01/27 10:15:25;;;;;;;29.40;16.20;;;4.10;99.90;;;;;;5119710;28;20574;-70
2022/01/27 10:18:10;;;;;;;27.03;14.70;;;4.00;99.90;;;;;;5120412;28;20556;-71
2022/01/27 10:20:38;;;;;;;31.73;16.40;;;4.00;99.90;;;;;;5118535;28;20475;-70
2022/01/27 10:23:14;;;;;;;36.80;17.77;;;3.90;99.90;;;;;;5118780;28;20786;-70
2022/01/27 10:25:47;;;;;;;36.00;17.80;;;3.90;99.90;;;;;;5118673;28;20464;-70
2022/01/27 10:28:30;;;;;;;28.00;17.07;;;3.90;99.90;;;;;;5119024;27;20448;-70
2022/01/27 10:31:03;;;;;;;32.27;18.03;;;3.90;99.90;;;;;;5118595;27;20468;-70
2022/01/27 10:33:44;;;;;;;26.70;16.00;;;3.90;99.90;;;;;;5118893;28;20452;-71
2022/01/27 10:36:23;;;;;;;32.17;16.17;;;3.80;99.90;;;;;;5118728;28;20440;-70
2022/01/27 10:38:55;;;;;;;30.53;16.77;;;3.80;99.90;;;;;;5118540;28;20483;-70
2022/01/27 10:41:22;;;;;;;35.07;18.43;;;3.80;99.90;;;;;;5118737;28;20456;-72
2022/01/27 10:43:49;;;;;;;35.57;19.80;;;3.90;99.90;;;;;;5119136;28;20812;-74
2022/01/27 10:46:24;;;;;;;33.40;18.33;;;3.90;99.90;;;;;;5118654;27;20452;-71
2022/01/27 10:48:58;;;;;;;31.37;17.20;;;3.90;99.90;;;;;;5118715;28;20436;-74
2022/01/27 10:51:29;;;;;;;31.77;18.43;;;3.90;99.90;;;;;;5118862;28;20814;-72
2022/01/27 10:54:01;;;;;;;32.37;16.80;;;4.00;99.90;;;;;;5118385;28;20472;-73
2022/01/27 10:56:29;;;;;;;38.67;19.87;;;4.00;99.90;;;;;;5118296;28;20476;-72
2022/01/27 10:58:58;;;;;;;35.67;19.20;;;4.00;99.90;;;;;;5118173;28;20576;-73
2022/01/27 11:01:30;;;;;;;34.33;18.93;;;4.00;99.90;;;;;;5118458;27;20759;-73
2022/01/27 11:03:58;;;;;;;36.17;17.43;;;4.00;99.90;;;;;;5118494;28;20445;-73
2022/01/27 11:06:27;;;;;;;35.73;19.33;;;3.90;99.90;;;;;;5119888;28;20452;-73
2022/01/27 11:08:56;;;;;;;33.63;19.13;;;3.90;99.90;;;;;;5118103;28;20452;-72
2022/01/27 11:11:24;;;;;;;37.77;18.67;;;3.90;99.90;;;;;;5118214;28;20463;-73
2022/01/27 11:13:53;;;;;;;32.17;18.83;;;3.90;99.90;;;;;;5119115;28;20452;-73
2022/01/27 11:16:27;;;;;;;35.70;19.00;;;4.00;99.90;;;;;;5119623;28;20552;-72
2022/01/27 11:19:01;;;;;;;39.80;19.50;;;4.00;99.90;;;;;;5120593;28;20436;-74
2022/01/27 11:21:34;;;;;;;37.10;18.57;;;4.00;99.90;;;;;;5119705;28;20442;-73
2022/01/27 11:24:14;;;;;;;33.47;19.37;;;4.00;99.90;;;;;;5120014;28;20505;-74
2022/01/27 11:26:43;;;;;;;32.13;18.10;;;4.00;99.90;;;;;;5119619;28;20436;-74
2022/01/27 11:29:11;;;;;;;38.07;19.77;;;4.00;99.90;;;;;;5120707;28;20912;-73
2022/01/27 11:31:53;;;;;;;33.73;18.73;;;4.00;99.90;;;;;;5124413;28;20449;-72
2022/01/27 11:34:21;;;;;;;29.67;16.50;;;4.00;99.90;;;;;;5128535;28;20842;-75
2022/01/27 11:37:03;;;;;;;34.93;18.10;;;4.00;99.90;;;;;;5130834;28;20536;-74
2022/01/27 11:39:49;;;;;;;29.97;17.00;;;4.00;99.90;;;;;;5129425;28;20931;-74
2022/01/27 11:42:20;;;;;;;30.10;15.97;;;4.10;99.90;;;;;;5133131;28;20443;-74
2022/01/27 11:44:48;;;;;;;27.27;16.03;;;4.00;99.90;;;;;;5127927;28;20433;-74
2022/01/27 11:47:22;;;;;;;32.83;15.47;;;4.00;99.90;;;;;;5127280;28;20472;-74
2022/01/27 11:49:58;;;;;;;34.80;15.47;;;4.10;99.90;;;;;;5122911;28;20448;-74
2022/01/27 11:52:28;;;;;;;27.07;15.93;;;4.10;99.90;;;;;;5118605;28;20450;-74
2022/01/27 11:54:57;;;;;;;33.80;17.50;;;4.20;99.90;;;;;;5118207;28;20463;-73
2022/01/27 11:57:45;;;;;;;30.03;16.30;;;4.10;99.90;;;;;;5117899;28;20449;-74
2022/01/27 12:00:15;;;;;;;34.67;17.17;;;4.20;99.90;;;;;;5117594;28;20963;-74
2022/01/27 12:03:12;;;;;;;34.60;16.80;;;4.20;99.90;;;;;;5117426;27;20449;-74
2022/01/27 12:06:04;;;;;;;33.03;16.10;;;4.20;99.90;;;;;;5112825;28;20521;-73
2022/01/27 12:08:32;;;;;;;30.57;15.23;;;4.20;99.90;;;;;;5116763;28;20459;-72
2022/01/27 12:11:01;;;;;;;28.23;17.10;;;4.30;99.90;;;;;;5118266;28;20456;-74
2022/01/27 12:13:56;;;;;;;31.40;16.17;;;4.30;99.90;;;;;;5117966;28;20463;-74
2022/01/27 12:16:51;;;;;;;29.00;16.33;;;4.30;99.90;;;;;;5118332;28;20486;-75
2022/01/27 12:19:18;;;;;;;33.47;16.63;;;4.30;99.90;;;;;;5121794;28;20461;-73
2022/01/27 12:21:56;;;;;;;38.57;16.60;;;4.40;99.90;;;;;;5116665;27;20452;-73
2022/01/27 12:24:27;;;;;;;29.47;16.23;;;4.40;99.90;;;;;;5118097;27;20765;-72
2022/01/27 12:26:56;;;;;;;34.20;17.10;;;4.40;99.90;;;;;;5118556;28;20453;-73
2022/01/27 12:29:29;;;;;;;26.07;15.23;;;4.40;99.90;;;;;;5117330;28;20452;-73
2022/01/27 12:31:58;;;;;;;27.63;14.97;;;4.40;99.90;;;;;;5116716;28;20928;-74
2022/01/27 12:34:25;;;;;;;29.20;16.63;;;4.40;99.90;;;;;;5117079;28;20452;-74
2022/01/27 12:37:04;;;;;;;27.93;15.73;;;4.40;99.90;;;;;;5116382;28;20468;-74
2022/01/27 12:39:35;;;;;;;26.23;14.80;;;4.40;99.90;;;;;;5117121;28;20469;-75
2022/01/27 12:42:05;;;;;;;29.80;14.77;;;4.50;99.90;;;;;;5117019;28;20440;-73
2022/01/27 12:44:32;;;;;;;26.27;15.30;;;4.50;99.90;;;;;;5116535;28;20472;-74
2022/01/27 12:47:11;;;;;;;29.97;15.03;;;4.50;99.90;;;;;;5116332;28;20976;-74
2022/01/27 12:49:44;;;;;;;29.03;15.60;;;4.60;99.90;;;;;;5116653;28;20444;-75
2022/01/27 12:52:14;;;;;;;23.60;12.80;;;4.60;99.90;;;;;;5116307;28;20440;-73
2022/01/27 12:54:43;;;;;;;23.10;13.80;;;4.60;99.90;;;;;;5116324;28;20760;-73
2022/01/27 12:57:12;;;;;;;24.90;13.70;;;4.70;99.90;;;;;;5116510;28;20884;-73
2022/01/27 12:59:41;;;;;;;24.70;14.37;;;4.70;99.90;;;;;;5116229;28;20480;-75
2022/01/27 13:02:09;;;;;;;20.43;12.97;;;4.70;99.90;;;;;;5116061;28;20467;-73
2022/01/27 13:04:38;;;;;;;27.03;13.60;;;4.70;99.90;;;;;;5115950;28;20920;-72